Xin Fu 14 — VROG7 — position and weather

sailwx.info

Track history (hours):
 
Tides and Currents Weather Stations Pressure Air Temp Water Temp Dewpoint Dewpoint Depression Visibility Wind Speed Wind Dir Waves Ship Positions

Xin Fu 14

Last reported at 2017-Nov-24 00:00 UTC. Time now 2017-Nov-24 18:33 UTC.
Position N 41°06' W 162°18'.

Length 300 m; draft 7.5 m.

Type: Cargo ship. MMSI: 434156100.

Wind from 310 at 12 knots

Barometer 1030.0 mb
Air temperature 13.0 ° C
Visibility: greater than 10.8 NM
Dewpoint 6.8 ° C
Water temperature 13.0 ° C

Date/timePositionNaut miles runAvg speedWind from/ knotsBaromVisibWave heightAir tempDewpointWater temp
2017-Nov-24 00:00N 41°06' W 162°18'56823.7 310 / 121030.010.8 13.0 6.813.0
2017-Nov-23 00:00N 43°00' W 174°48'   200 / 231027.0 5.4 13.0 9.112.0
2017-Nov-19 06:00N 38°00' E 147°06'22418.7 280 / 221008.027.0 11.0 4.317.0
2017-Nov-18 18:00N 36°12' E 143°00'16420.0 320 / 42998.010.8 11.0 9.023.2
2017-Nov-18 09:47N 34°48' E 140°07'1020.3
2017-Nov-18 09:17N 34°44' E 139°56'820.9
2017-Nov-18 08:54N 34°42' E 139°46'  
2017-Nov-14 23:45N 24°17' E 118°56'718.2
2017-Nov-14 23:24N 24°14' E 118°50'718.5
2017-Nov-14 23:01N 24°10' E 118°44'1018.7
2017-Nov-14 22:28N 24°04' E 118°34'919.2
2017-Nov-14 21:59N 23°59' E 118°26'19818.0
2017-Nov-14 11:00N 22°16' E 115°23'1018.4
2017-Nov-14 10:29N 22°14' E 115°12'918.2
2017-Nov-14 10:01N 22°13' E 115°03'917.9
2017-Nov-14 09:31N 22°15' E 114°54'917.4
2017-Nov-14 09:01N 22°17' E 114°44'917.7
2017-Nov-14 08:31N 22°19' E 114°35'816.6
2017-Nov-14 08:00N 22°25' E 114°29'511.1
2017-Nov-14 07:30N 22°30' E 114°26'713.7
2017-Nov-14 07:01N 22°34' E 114°20'3 5.0
2017-Nov-14 06:31N 22°34' E 114°17'0 0.1
2017-Nov-14 06:01N 22°34' E 114°17'0 0.1
2017-Nov-14 05:31N 22°34' E 114°17'0 0.0
2017-Nov-14 05:01N 22°34' E 114°17'0 0.1
2017-Nov-14 04:31N 22°34' E 114°17'0 0.0
2017-Nov-14 04:01N 22°34' E 114°17'0 0.0
2017-Nov-14 03:31N 22°34' E 114°17'0 0.0
2017-Nov-14 03:01N 22°34' E 114°17'0 0.0
2017-Nov-14 02:31N 22°34' E 114°17'0 0.0
2017-Nov-14 02:01N 22°34' E 114°17'0 0.0
2017-Nov-14 01:31N 22°34' E 114°17'0 0.1
2017-Nov-14 01:00N 22°34' E 114°17'0 0.0
2017-Nov-14 00:31N 22°34' E 114°17'0 0.1
2017-Nov-14 00:01N 22°34' E 114°17'  
Track history (hours):
 
Tides and Currents Weather Stations Pressure Air Temp Water Temp Dewpoint Dewpoint Depression Visibility Wind Speed Wind Dir Waves Ship Positions

Xin Fu 14

Last reported at 2017-Nov-24 00:00 UTC. Time now 2017-Nov-24 18:33 UTC.
Position N 41°06' W 162°18'.

Length 300 m; draft 7.5 m.

Type: Cargo ship. MMSI: 434156100.

Wind from 310 at 12 knots

Barometer 1030.0 mb
Air temperature 13.0 ° C
Visibility: greater than 10.8 NM
Dewpoint 6.8 ° C
Water temperature 13.0 ° C

Date/timePositionNaut miles runAvg speedWind from/ knotsBaromVisibWave heightAir tempDewpointWater temp
2017-Nov-24 00:00N 41°06' W 162°18'56823.7 310 / 121030.010.8 13.0 6.813.0
2017-Nov-23 00:00N 43°00' W 174°48'   200 / 231027.0 5.4 13.0 9.112.0
2017-Nov-19 06:00N 38°00' E 147°06'22418.7 280 / 221008.027.0 11.0 4.317.0
2017-Nov-18 18:00N 36°12' E 143°00'16420.0 320 / 42998.010.8 11.0 9.023.2
2017-Nov-18 09:47N 34°48' E 140°07'1020.3
2017-Nov-18 09:17N 34°44' E 139°56'820.9
2017-Nov-18 08:54N 34°42' E 139°46'  
2017-Nov-14 23:45N 24°17' E 118°56'718.2
2017-Nov-14 23:24N 24°14' E 118°50'718.5
2017-Nov-14 23:01N 24°10' E 118°44'1018.7
2017-Nov-14 22:28N 24°04' E 118°34'919.2
2017-Nov-14 21:59N 23°59' E 118°26'19818.0
2017-Nov-14 11:00N 22°16' E 115°23'1018.4
2017-Nov-14 10:29N 22°14' E 115°12'918.2
2017-Nov-14 10:01N 22°13' E 115°03'917.9
2017-Nov-14 09:31N 22°15' E 114°54'917.4
2017-Nov-14 09:01N 22°17' E 114°44'917.7
2017-Nov-14 08:31N 22°19' E 114°35'816.6
2017-Nov-14 08:00N 22°25' E 114°29'511.1
2017-Nov-14 07:30N 22°30' E 114°26'713.7
2017-Nov-14 07:01N 22°34' E 114°20'3 5.0
2017-Nov-14 06:31N 22°34' E 114°17'0 0.1
2017-Nov-14 06:01N 22°34' E 114°17'0 0.1
2017-Nov-14 05:31N 22°34' E 114°17'0 0.0
2017-Nov-14 05:01N 22°34' E 114°17'0 0.1
2017-Nov-14 04:31N 22°34' E 114°17'0 0.0
2017-Nov-14 04:01N 22°34' E 114°17'0 0.0
2017-Nov-14 03:31N 22°34' E 114°17'0 0.0
2017-Nov-14 03:01N 22°34' E 114°17'0 0.0
2017-Nov-14 02:31N 22°34' E 114°17'0 0.0
2017-Nov-14 02:01N 22°34' E 114°17'0 0.0
2017-Nov-14 01:31N 22°34' E 114°17'0 0.1
2017-Nov-14 01:00N 22°34' E 114°17'0 0.0
2017-Nov-14 00:31N 22°34' E 114°17'0 0.1
2017-Nov-14 00:01N 22°34' E 114°17'  

Dump ship's entire track history